aviador You're here:

LFLC Decoded Metar

CLERMONT FERRAND in FRANCE
Report Time2018-06-19 06:00:00
UTC Time2018-06-19 06:29:44
Flight Rules vfr VFR
WindVRB at 02 kt
Visibility9999 m
Phenomena:N/A
Clouds:Scattered 029 Hf
Overcast 042 Hf
Expected CloudBase > 800 ft AGL from Temp-Dew spread
Ceiling4,200 ft
Temp17°C (ISA +4)
Dew Point15°C (88% RH)
QNH1026 hPa
Density Alt1,365 ft
Elevation1,083 ft
Report Wrong Elevation
Raw Report
LFLC 190600Z AUTO VRB02KT 9999 SCT029 OVC042 17/15 Q1026 NOSIG=

Extra information for LFLC:More info

Metar Taf Metar & Taf Last 4 Metars F.Rules Stats Wind Profile Meteogram Temp Stats Airport Information Weather charts Add Link Nearby VenuesMetar ALERT Operation Metar Decoded Social comments